EHBK

Maastricht Aachen Airport

Maastricht, The Netherlands
METAR EHBK 191225Z AUTO 21012KT 9999 SCT022 BKN026 OVC029 10/05 Q1011 NOSIG
Observed Flight Rules
Dec-19 @ 12:25 UTC (17 minutes ago) Marginal Visual Flight Rules
Wind Visibility Clouds
210° at 12 knots 10,000+ meters
  • Scattered at 2,200' AGL
  • Broken at 2,600' AGL
  • Overcast at 2,900' AGL
Temperatures Readings
Current 10°C / 50°F
Dewpoint 5°C / 41°F
Humidity 71%
Altimeter 29.85" Hg
Pressure 1011 hPa
Elevation 116
METAR EHBK 191225Z AUTO 21012KT 9999 SCT022 BKN026 OVC029 10/05 Q1011 NOSIG
Observed Flight Rules
Dec-19 @ 12:25 UTC
(17 minutes ago)
MVFR
Wind Visibility
210° at 12 knots 10,000+ meters
Clouds
  • Scattered at 2,200' AGL
  • Broken at 2,600' AGL
  • Overcast at 2,900' AGL
Temperature Dewpoint
10°C / 50°F 5°C / 41°F
Humidity Altimeter Pressure
71% 29.85" Hg 1011 hPa